createdAt,value
2018-06-09T00:02:22.290Z,27.00
2018-06-09T00:04:50.826Z,28.10
2018-06-09T00:07:19.953Z,27.33
2018-06-09T00:09:48.692Z,28.10
2018-06-09T00:12:17.241Z,26.40
2018-06-09T00:14:45.828Z,24.63
2018-06-09T00:17:14.409Z,25.27
2018-06-09T00:19:43.407Z,25.47
2018-06-09T00:22:11.987Z,25.53
2018-06-09T00:24:40.160Z,26.40
2018-06-09T00:27:08.369Z,23.53
2018-06-09T00:29:36.919Z,25.67
2018-06-09T00:32:05.128Z,28.13
2018-06-09T00:34:33.661Z,26.37
2018-06-09T00:37:01.896Z,26.40
2018-06-09T00:39:30.434Z,25.43
2018-06-09T00:41:58.670Z,23.67
2018-06-09T00:44:27.186Z,26.87
2018-06-09T00:46:55.404Z,27.13
2018-06-09T00:49:23.918Z,26.77
2018-06-09T00:51:52.462Z,25.73
2018-06-09T00:54:20.985Z,25.00
2018-06-09T00:56:49.550Z,26.50
2018-06-09T00:59:18.078Z,26.00
2018-06-09T01:01:46.289Z,25.03
2018-06-09T01:04:14.798Z,25.13
2018-06-09T01:06:43.369Z,26.57
2018-06-09T01:09:11.888Z,27.20
2018-06-09T01:11:40.417Z,25.17
2018-06-09T01:14:08.954Z,24.80
2018-06-09T01:16:37.466Z,27.83
2018-06-09T01:19:06.014Z,29.30
2018-06-09T01:21:34.516Z,30.83
2018-06-09T01:24:03.080Z,29.63
2018-06-09T01:26:31.593Z,27.77
2018-06-09T01:28:59.822Z,29.17
2018-06-09T01:31:28.357Z,28.57
2018-06-09T01:33:56.613Z,26.70
2018-06-09T01:36:25.119Z,25.47
2018-06-09T01:38:53.715Z,25.20
2018-06-09T01:41:22.319Z,26.37
2018-06-09T01:43:50.870Z,25.20
2018-06-09T01:46:19.385Z,25.10
2018-06-09T01:48:47.910Z,23.83
2018-06-09T01:51:16.414Z,26.00
2018-06-09T01:53:44.640Z,27.60
2018-06-09T01:56:13.184Z,27.63
2018-06-09T01:58:41.695Z,28.23
2018-06-09T02:01:10.206Z,29.17
2018-06-09T02:03:38.748Z,26.33
2018-06-09T02:06:07.237Z,26.60
2018-06-09T02:08:35.816Z,27.60
2018-06-09T02:11:04.312Z,27.20
2018-06-09T02:13:32.858Z,26.87
2018-06-09T02:16:01.064Z,28.27
2018-06-09T02:18:29.597Z,27.53
2018-06-09T02:20:58.165Z,27.70
2018-06-09T02:23:26.683Z,29.07
2018-06-09T02:25:54.888Z,28.23
2018-06-09T02:28:23.441Z,26.90
2018-06-09T02:30:51.658Z,28.03
2018-06-09T02:33:20.189Z,26.00
2018-06-09T02:35:48.402Z,26.37
2018-06-09T02:38:17.602Z,28.17
2018-06-09T02:40:46.838Z,30.50
2018-06-09T02:43:15.329Z,28.73
2018-06-09T02:45:44.514Z,29.90
2018-06-09T02:48:13.026Z,29.63
2018-06-09T02:50:42.198Z,29.27
2018-06-09T02:53:10.981Z,29.07
2018-06-09T02:55:39.553Z,29.20
2018-06-09T02:58:08.090Z,27.90
2018-06-09T03:00:36.255Z,28.20
2018-06-09T03:03:04.794Z,28.33
2018-06-09T03:05:33.406Z,28.00
2018-06-09T03:08:01.974Z,24.43
2018-06-09T03:10:30.491Z,25.87
2018-06-09T03:12:58.688Z,25.50
2018-06-09T03:15:27.209Z,25.53
2018-06-09T03:17:55.814Z,26.17
2018-06-09T03:20:24.330Z,26.30
2018-06-09T03:22:52.553Z,26.83
2018-06-09T03:25:21.073Z,27.60
2018-06-09T03:27:49.613Z,28.00
2018-06-09T03:30:18.197Z,26.97
2018-06-09T03:32:46.737Z,27.30
2018-06-09T03:35:14.956Z,28.80
2018-06-09T03:37:43.489Z,29.23
2018-06-09T03:40:11.699Z,26.57
2018-06-09T03:42:40.249Z,25.77
2018-06-09T03:45:08.441Z,25.70
2018-06-09T03:47:36.986Z,24.90
2018-06-09T03:50:05.590Z,24.87
2018-06-09T03:52:33.793Z,25.57
2018-06-09T03:55:02.361Z,26.60
2018-06-09T03:57:31.041Z,26.67
2018-06-09T03:59:59.265Z,27.00
2018-06-09T04:02:27.806Z,27.67
2018-06-09T04:04:56.857Z,27.47
2018-06-09T04:07:25.396Z,26.87
2018-06-09T04:09:54.819Z,26.53
2018-06-09T04:12:24.026Z,25.27
2018-06-09T04:14:52.602Z,26.77
2018-06-09T04:17:21.720Z,26.43
2018-06-09T04:19:50.311Z,26.60
2018-06-09T04:22:18.847Z,26.23
2018-06-09T04:24:48.242Z,26.57
2018-06-09T04:27:16.452Z,26.63
2018-06-09T04:29:45.018Z,27.30
2018-06-09T04:32:13.549Z,27.07
2018-06-09T04:34:42.741Z,27.50
2018-06-09T04:37:11.267Z,26.80
2018-06-09T04:39:39.491Z,25.40
2018-06-09T04:42:08.019Z,26.00
2018-06-09T04:44:36.841Z,25.27
2018-06-09T04:47:05.353Z,25.57
2018-06-09T04:49:33.870Z,27.17
2018-06-09T04:52:02.083Z,26.80
2018-06-09T04:54:30.597Z,28.90
2018-06-09T04:56:59.147Z,29.83
2018-06-09T04:59:27.658Z,35.23
2018-06-09T05:01:56.202Z,29.67
2018-06-09T05:04:24.710Z,37.27
2018-06-09T05:06:53.300Z,36.33
2018-06-09T05:09:21.814Z,40.30
2018-06-09T05:11:51.146Z,42.63
2018-06-09T05:14:23.113Z,39.60
2018-06-09T05:16:51.663Z,36.77
2018-06-09T05:19:20.189Z,38.20
2018-06-09T05:21:48.770Z,39.33
2018-06-09T05:24:17.273Z,38.50
2018-06-09T05:26:45.838Z,43.60
2018-06-09T05:29:14.351Z,40.17
2018-06-09T05:31:42.891Z,39.03
2018-06-09T05:34:11.474Z,39.60
2018-06-09T05:36:40.021Z,38.67
2018-06-09T05:39:09.478Z,42.73
2018-06-09T05:41:38.052Z,44.23
2018-06-09T05:44:06.590Z,45.03
2018-06-09T05:46:35.821Z,41.93
2018-06-09T05:49:04.085Z,46.87
2018-06-09T05:51:33.209Z,46.30
2018-06-09T05:54:01.794Z,47.03
2018-06-09T05:56:30.330Z,43.73
2018-06-09T05:58:58.940Z,44.73
2018-06-09T06:01:27.121Z,48.07
2018-06-09T06:03:55.383Z,49.67
2018-06-09T06:06:23.919Z,43.63
2018-06-09T06:08:52.471Z,46.23
2018-06-09T06:11:21.449Z,47.47
2018-06-09T06:13:50.000Z,48.20
2018-06-09T06:16:18.531Z,46.57
2018-06-09T06:18:46.887Z,51.83
2018-06-09T06:21:15.456Z,56.77
2018-06-09T06:23:44.330Z,52.77
2018-06-09T06:26:12.856Z,54.13
2018-06-09T06:28:41.065Z,54.63
2018-06-09T06:31:09.660Z,50.37
2018-06-09T06:33:38.757Z,51.37
2018-06-09T06:36:07.350Z,52.03
2018-06-09T06:38:35.924Z,50.90
2018-06-09T06:41:04.541Z,50.57
2018-06-09T06:43:33.090Z,53.23
2018-06-09T06:46:01.751Z,49.97
2018-06-09T06:48:29.980Z,54.60
2018-06-09T06:50:58.538Z,49.97
2018-06-09T06:53:27.052Z,49.10
2018-06-09T06:55:55.634Z,52.63
2018-06-09T06:58:24.186Z,46.97
2018-06-09T07:00:52.766Z,49.23
2018-06-09T07:03:21.281Z,54.37
2018-06-09T07:05:49.853Z,61.83
2018-06-09T07:08:18.397Z,57.63
2018-06-09T07:10:46.620Z,51.20
2018-06-09T07:13:15.345Z,52.83
2018-06-09T07:15:43.675Z,52.87
2018-06-09T07:18:12.238Z,48.63
2018-06-09T07:20:41.366Z,56.53
2018-06-09T07:23:09.926Z,56.90
2018-06-09T07:25:39.013Z,55.27
2018-06-09T07:28:07.582Z,52.37
2018-06-09T07:30:36.109Z,50.37
2018-06-09T07:33:04.686Z,51.83
2018-06-09T07:35:33.250Z,49.80
2018-06-09T07:38:01.791Z,46.07
2018-06-09T07:40:30.310Z,47.73
2018-06-09T07:42:58.858Z,44.97
2018-06-09T07:45:27.397Z,42.57
2018-06-09T07:47:56.025Z,42.80
2018-06-09T07:50:24.674Z,42.97
2018-06-09T07:52:53.932Z,44.63
2018-06-09T07:55:22.474Z,39.67
2018-06-09T07:57:51.015Z,36.43
2018-06-09T08:00:19.523Z,41.33
2018-06-09T08:02:48.075Z,35.30
2018-06-09T08:05:16.260Z,39.97
2018-06-09T08:07:44.794Z,33.37
2018-06-09T08:10:13.342Z,42.73
2018-06-09T08:12:42.507Z,39.47
2018-06-09T08:15:11.021Z,38.03
2018-06-09T08:17:39.541Z,39.67
2018-06-09T08:20:08.095Z,37.87
2018-06-09T08:22:36.602Z,34.40
2018-06-09T08:25:05.261Z,37.33
2018-06-09T08:27:33.812Z,36.83
2018-06-09T08:30:02.017Z,37.53
2018-06-09T08:32:30.554Z,37.77
2018-06-09T08:34:59.137Z,39.10
2018-06-09T08:37:28.349Z,37.67
2018-06-09T08:39:56.556Z,37.37
2018-06-09T08:42:25.131Z,34.37
2018-06-09T08:44:53.674Z,39.07
2018-06-09T08:47:22.559Z,41.47
2018-06-09T08:49:52.045Z,38.40
2018-06-09T08:52:20.806Z,37.00
2018-06-09T08:54:49.362Z,33.10
2018-06-09T08:57:18.382Z,32.97
2018-06-09T08:59:46.942Z,32.30
2018-06-09T09:02:15.124Z,29.47
2018-06-09T09:04:43.389Z,33.23
2018-06-09T09:07:11.577Z,29.77
2018-06-09T09:09:40.142Z,29.20
2018-06-09T09:12:08.649Z,29.00
2018-06-09T09:14:36.876Z,24.83
2018-06-09T09:17:05.450Z,27.20
2018-06-09T09:19:34.026Z,25.57
2018-06-09T09:22:02.594Z,29.00
2018-06-09T09:24:31.129Z,25.27
2018-06-09T09:26:59.784Z,27.47
2018-06-09T09:29:28.306Z,24.47
2018-06-09T09:31:56.853Z,25.07
2018-06-09T09:34:25.384Z,25.27
2018-06-09T09:36:53.623Z,27.77
2018-06-09T09:39:23.011Z,24.37
2018-06-09T09:41:51.541Z,25.37
2018-06-09T09:44:20.045Z,24.10
2018-06-09T09:46:48.653Z,25.83
2018-06-09T09:49:17.161Z,24.43
2018-06-09T09:51:46.253Z,24.70
2018-06-09T09:54:15.270Z,25.13
2018-06-09T09:56:43.844Z,25.73
2018-06-09T09:59:12.867Z,25.53
2018-06-09T10:01:41.180Z,25.00
2018-06-09T10:04:09.685Z,21.73
2018-06-09T10:06:38.257Z,22.70
2018-06-09T10:09:08.249Z,22.03
2018-06-09T10:11:37.490Z,21.57
2018-06-09T10:14:06.039Z,21.03
2018-06-09T10:16:34.589Z,21.17
2018-06-09T10:19:02.809Z,17.93
2018-06-09T10:21:31.345Z,17.60
2018-06-09T10:23:59.528Z,20.83
2018-06-09T10:26:27.748Z,19.83
2018-06-09T10:28:56.277Z,19.17
2018-06-09T10:31:24.505Z,20.40
2018-06-09T10:33:53.087Z,19.80
2018-06-09T10:36:21.652Z,18.87
2018-06-09T10:38:50.883Z,19.00
2018-06-09T10:41:20.093Z,17.57
2018-06-09T10:43:48.680Z,17.90
2018-06-09T10:46:17.242Z,18.07
2018-06-09T10:48:45.814Z,17.93
2018-06-09T10:51:14.944Z,18.10
2018-06-09T10:53:43.558Z,15.73
2018-06-09T10:56:12.744Z,15.60
2018-06-09T10:58:41.878Z,15.80
2018-06-09T11:01:10.443Z,15.10
2018-06-09T11:03:39.098Z,14.07
2018-06-09T11:06:07.756Z,14.57
2018-06-09T11:08:36.321Z,16.10
2018-06-09T11:11:04.870Z,16.57
2018-06-09T11:13:34.105Z,17.37
2018-06-09T11:16:02.627Z,16.63
2018-06-09T11:18:31.182Z,16.73
2018-06-09T11:21:00.296Z,17.13
2018-06-09T11:23:28.848Z,17.10
2018-06-09T11:25:57.380Z,18.17
2018-06-09T11:28:25.927Z,16.40
2018-06-09T11:30:54.453Z,16.53
2018-06-09T11:33:23.639Z,15.33
2018-06-09T11:35:52.150Z,16.73
2018-06-09T11:38:21.301Z,17.47
2018-06-09T11:40:49.827Z,18.43
2018-06-09T11:43:18.342Z,19.03
2018-06-09T11:45:46.910Z,18.67
2018-06-09T11:48:15.120Z,16.60
2018-06-09T11:50:43.668Z,17.70
2018-06-09T11:53:11.984Z,18.47
2018-06-09T11:55:40.556Z,17.00
2018-06-09T11:58:09.170Z,15.93
2018-06-09T12:00:37.720Z,16.83
2018-06-09T12:03:06.258Z,16.63
2018-06-09T12:05:34.860Z,16.03
2018-06-09T12:08:03.388Z,15.63
2018-06-09T12:10:31.950Z,15.17
2018-06-09T12:13:00.492Z,14.47
2018-06-09T12:15:29.777Z,15.07
2018-06-09T12:17:58.886Z,14.93
2018-06-09T12:20:27.433Z,13.90
2018-06-09T12:22:55.982Z,13.90
2018-06-09T12:25:25.357Z,13.20
2018-06-09T12:27:54.361Z,17.43
2018-06-09T12:30:23.011Z,15.57
2018-06-09T12:32:52.958Z,14.43
2018-06-09T12:35:21.533Z,15.87
2018-06-09T12:37:50.072Z,16.07
2018-06-09T12:40:18.606Z,16.17
2018-06-09T12:42:47.797Z,16.53
2018-06-09T12:45:16.802Z,15.33
2018-06-09T12:47:45.374Z,14.60
2018-06-09T12:50:13.942Z,15.27
2018-06-09T12:52:42.516Z,16.97
2018-06-09T12:55:11.054Z,15.17
2018-06-09T12:57:39.279Z,16.50
2018-06-09T13:00:07.838Z,15.87
2018-06-09T13:02:36.412Z,15.87
2018-06-09T13:05:04.664Z,16.00
2018-06-09T13:07:33.677Z,16.43
2018-06-09T13:10:01.874Z,17.10
2018-06-09T13:12:30.799Z,14.10
2018-06-09T13:14:59.363Z,14.87
2018-06-09T13:17:27.948Z,15.37
2018-06-09T13:19:57.125Z,15.10
2018-06-09T13:22:25.693Z,14.60
2018-06-09T13:24:54.280Z,15.60
2018-06-09T13:27:22.862Z,15.00
2018-06-09T13:29:51.407Z,14.77
2018-06-09T13:32:19.982Z,14.73
2018-06-09T13:34:48.514Z,13.37
2018-06-09T13:37:17.081Z,15.80
2018-06-09T13:39:45.607Z,15.10
2018-06-09T13:42:14.162Z,15.00
2018-06-09T13:44:42.345Z,15.03
2018-06-09T13:47:10.541Z,15.00
2018-06-09T13:49:39.089Z,14.83
2018-06-09T13:52:07.609Z,14.07
2018-06-09T13:54:36.191Z,14.33
2018-06-09T13:57:04.793Z,13.20
2018-06-09T13:59:33.355Z,13.77
2018-06-09T14:02:01.885Z,14.73
2018-06-09T14:04:30.441Z,15.13
2018-06-09T14:06:59.007Z,14.13
2018-06-09T14:09:27.568Z,15.00
2018-06-09T14:11:56.134Z,15.30
2018-06-09T14:14:24.674Z,18.90
2018-06-09T14:16:53.216Z,22.50
2018-06-09T14:19:21.451Z,22.60
2018-06-09T14:21:49.964Z,20.60
2018-06-09T14:24:18.564Z,20.97
2018-06-09T14:26:46.756Z,22.47
2018-06-09T14:29:15.340Z,22.00
2018-06-09T14:31:43.921Z,20.17
2018-06-09T14:34:12.506Z,19.17
2018-06-09T14:36:41.018Z,16.80
2018-06-09T14:39:09.568Z,17.67
2018-06-09T14:41:38.087Z,17.03
2018-06-09T14:44:06.622Z,16.27
2018-06-09T14:46:34.813Z,15.40
2018-06-09T14:49:03.351Z,17.03
2018-06-09T14:51:32.213Z,17.63
2018-06-09T14:54:00.766Z,16.90
2018-06-09T14:56:29.281Z,16.47
2018-06-09T14:58:57.806Z,16.50
2018-06-09T15:01:26.405Z,14.50
2018-06-09T15:03:54.653Z,15.87
2018-06-09T15:06:23.225Z,15.30
2018-06-09T15:08:51.758Z,16.30
2018-06-09T15:11:20.393Z,19.67
2018-06-09T15:13:48.860Z,19.73
2018-06-09T15:16:17.414Z,19.33
2018-06-09T15:18:45.930Z,19.13
2018-06-09T15:21:15.400Z,18.97
2018-06-09T15:23:44.017Z,20.67
2018-06-09T15:26:12.562Z,18.70
2018-06-09T15:28:40.876Z,18.83
2018-06-09T15:31:09.574Z,18.37
2018-06-09T15:33:41.135Z,20.53
2018-06-09T15:36:09.686Z,18.70
2018-06-09T15:38:38.789Z,22.43
2018-06-09T15:41:07.971Z,23.07
2018-06-09T15:43:36.558Z,24.03
2018-06-09T15:46:05.120Z,23.00
2018-06-09T15:48:33.670Z,24.87
2018-06-09T15:51:02.238Z,24.40
2018-06-09T15:53:30.806Z,23.47
2018-06-09T15:55:59.433Z,20.60
2018-06-09T15:58:28.006Z,18.53
2018-06-09T16:00:56.550Z,16.23
2018-06-09T16:03:25.129Z,16.10
2018-06-09T16:05:54.328Z,15.13
2018-06-09T16:08:22.952Z,15.23
2018-06-09T16:10:51.488Z,15.37
2018-06-09T16:13:19.748Z,15.07
2018-06-09T16:15:48.262Z,14.07
2018-06-09T16:18:17.790Z,14.70
2018-06-09T16:20:46.301Z,14.40
2018-06-09T16:23:14.858Z,14.67
2018-06-09T16:25:44.595Z,13.33
2018-06-09T16:28:13.192Z,12.33
2018-06-09T16:30:41.729Z,12.43
2018-06-09T16:33:10.273Z,11.53
2018-06-09T16:35:39.152Z,11.17
2018-06-09T16:38:07.733Z,10.47
2018-06-09T16:40:36.289Z,10.30
2018-06-09T16:43:04.870Z,9.07
2018-06-09T16:45:33.422Z,9.47
2018-06-09T16:48:01.970Z,9.83
2018-06-09T16:50:30.486Z,10.30
2018-06-09T16:52:59.068Z,11.60
2018-06-09T16:55:27.629Z,9.97
2018-06-09T16:57:56.217Z,11.37
2018-06-09T17:00:24.761Z,11.13
2018-06-09T17:02:53.295Z,10.43
2018-06-09T17:05:21.518Z,10.30
2018-06-09T17:07:50.042Z,11.03
2018-06-09T17:10:18.638Z,10.93
2018-06-09T17:12:46.824Z,11.27
2018-06-09T17:15:15.381Z,11.47
2018-06-09T17:17:43.577Z,10.77
2018-06-09T17:20:12.408Z,10.73
2018-06-09T17:22:40.944Z,10.67
2018-06-09T17:25:10.132Z,10.80
2018-06-09T17:27:38.718Z,9.73
2018-06-09T17:30:06.941Z,8.43
2018-06-09T17:32:35.482Z,9.70
2018-06-09T17:35:03.761Z,8.70
2018-06-09T17:37:32.957Z,8.90
2018-06-09T17:40:01.208Z,8.67
2018-06-09T17:42:30.252Z,8.93
2018-06-09T17:44:58.837Z,8.20
2018-06-09T17:47:27.386Z,8.60
2018-06-09T17:49:56.533Z,8.67
2018-06-09T17:52:25.058Z,8.90
2018-06-09T17:54:54.319Z,8.40
2018-06-09T17:57:22.889Z,8.10
2018-06-09T17:59:52.789Z,8.60
2018-06-09T18:02:21.341Z,8.20
2018-06-09T18:04:49.904Z,8.70
2018-06-09T18:07:18.954Z,8.10
2018-06-09T18:09:47.513Z,9.00
2018-06-09T18:12:16.099Z,9.53
2018-06-09T18:14:45.958Z,8.53
2018-06-09T18:17:14.517Z,7.93
2018-06-09T18:19:43.090Z,8.17
2018-06-09T18:22:11.321Z,8.07
2018-06-09T18:24:39.873Z,7.73
2018-06-09T18:27:08.441Z,8.10
2018-06-09T18:29:37.501Z,7.20
2018-06-09T18:32:06.272Z,7.50
2018-06-09T18:34:35.369Z,7.63
2018-06-09T18:37:03.919Z,7.77
2018-06-09T18:39:33.352Z,7.20
2018-06-09T18:42:01.906Z,8.23
2018-06-09T18:44:30.997Z,8.20
2018-06-09T18:46:59.569Z,8.17
2018-06-09T18:49:28.122Z,7.60
2018-06-09T18:51:56.733Z,8.67
2018-06-09T18:54:25.267Z,8.53
2018-06-09T18:56:53.812Z,8.70
2018-06-09T18:59:22.026Z,8.27
2018-06-09T19:01:51.221Z,8.53
2018-06-09T19:04:19.757Z,8.43
2018-06-09T19:06:47.944Z,8.07
2018-06-09T19:09:16.159Z,9.07
2018-06-09T19:11:44.678Z,10.37
2018-06-09T19:14:13.221Z,10.60
2018-06-09T19:16:41.781Z,9.43
2018-06-09T19:19:10.314Z,9.83
2018-06-09T19:21:38.925Z,9.80
2018-06-09T19:24:07.520Z,10.07
2018-06-09T19:26:35.700Z,8.27
2018-06-09T19:29:05.267Z,9.30
2018-06-09T19:31:33.782Z,9.00
2018-06-09T19:34:02.420Z,8.03
2018-06-09T19:36:31.866Z,8.80
2018-06-09T19:39:01.127Z,8.90
2018-06-09T19:41:29.687Z,8.03
2018-06-09T19:43:58.308Z,12.73
2018-06-09T19:46:26.854Z,19.97
2018-06-09T19:48:55.567Z,22.77
2018-06-09T19:51:24.261Z,13.67
2018-06-09T19:53:52.812Z,10.77
2018-06-09T19:56:21.424Z,11.07
2018-06-09T19:58:50.040Z,10.77
2018-06-09T20:01:18.685Z,12.40
2018-06-09T20:03:47.249Z,14.73
2018-06-09T20:06:15.798Z,11.33
2018-06-09T20:08:44.022Z,10.37
2018-06-09T20:11:12.715Z,9.90
2018-06-09T20:13:41.278Z,10.37
2018-06-09T20:16:09.825Z,10.07
2018-06-09T20:18:38.055Z,11.63
2018-06-09T20:21:06.644Z,10.47
2018-06-09T20:23:35.205Z,10.80
2018-06-09T20:26:05.590Z,11.70
2018-06-09T20:28:34.201Z,10.87
2018-06-09T20:31:03.046Z,10.77
2018-06-09T20:33:31.829Z,11.10
2018-06-09T20:36:00.457Z,10.47
2018-06-09T20:38:29.032Z,9.60
2018-06-09T20:40:57.845Z,10.87
2018-06-09T20:43:26.450Z,10.57
2018-06-09T20:45:55.183Z,12.23
2018-06-09T20:48:23.810Z,11.87
2018-06-09T20:50:52.395Z,12.37
2018-06-09T20:53:21.044Z,11.90
2018-06-09T20:55:50.676Z,11.70
2018-06-09T20:58:19.230Z,12.50
2018-06-09T21:00:47.725Z,12.10
2018-06-09T21:03:16.246Z,11.60
2018-06-09T21:05:44.830Z,11.47
2018-06-09T21:08:13.325Z,11.00
2018-06-09T21:10:41.841Z,11.80
2018-06-09T21:13:16.985Z,12.07
2018-06-09T21:15:45.732Z,12.10
2018-06-09T21:18:14.954Z,10.83
2018-06-09T21:20:44.095Z,13.00
2018-06-09T21:23:12.641Z,11.83
2018-06-09T21:25:41.153Z,11.80
2018-06-09T21:28:11.976Z,10.80
2018-06-09T21:30:43.521Z,11.27
2018-06-09T21:34:27.686Z,10.63
2018-06-09T21:36:56.497Z,11.20
2018-06-09T21:39:32.773Z,10.90
2018-06-09T21:42:07.405Z,11.63
2018-06-09T21:44:41.734Z,12.63
2018-06-09T21:47:10.474Z,12.20
2018-06-09T21:49:39.098Z,12.27
2018-06-09T21:52:07.730Z,11.30
2018-06-09T21:54:36.822Z,11.73
2018-06-09T21:57:05.462Z,12.07
2018-06-09T21:59:34.002Z,11.10
2018-06-09T22:02:02.997Z,11.43
2018-06-09T22:04:31.647Z,11.30
2018-06-09T22:07:00.236Z,12.23
2018-06-09T22:09:28.812Z,12.50
2018-06-09T22:11:57.454Z,11.50
2018-06-09T22:14:26.063Z,11.77
2018-06-09T22:16:54.600Z,12.23
2018-06-09T22:19:23.160Z,11.93
2018-06-09T22:21:51.709Z,12.07
2018-06-09T22:24:20.253Z,11.60
2018-06-09T22:26:48.783Z,14.93
2018-06-09T22:29:17.357Z,12.37
2018-06-09T22:31:45.910Z,12.13
2018-06-09T22:34:14.517Z,12.30
2018-06-09T22:36:42.713Z,12.23
2018-06-09T22:39:11.269Z,11.87
2018-06-09T22:41:39.495Z,10.80
2018-06-09T22:44:08.054Z,11.13
2018-06-09T22:46:36.580Z,11.77
2018-06-09T22:49:05.144Z,12.87
2018-06-09T22:51:33.692Z,12.23
2018-06-09T22:54:01.914Z,12.27
2018-06-09T22:56:30.433Z,11.83
2018-06-09T22:58:59.082Z,13.20
2018-06-09T23:01:27.603Z,13.23
2018-06-09T23:03:56.680Z,13.37
2018-06-09T23:06:25.246Z,14.30
2018-06-09T23:08:53.792Z,13.87
2018-06-09T23:11:22.957Z,13.93
2018-06-09T23:13:52.277Z,13.57
2018-06-09T23:16:20.840Z,14.13
2018-06-09T23:18:50.017Z,13.37
2018-06-09T23:21:18.549Z,12.60
2018-06-09T23:23:46.772Z,12.47
2018-06-09T23:26:15.302Z,12.43
2018-06-09T23:28:43.549Z,13.03
2018-06-09T23:31:12.102Z,14.03
2018-06-09T23:33:40.642Z,12.93
2018-06-09T23:36:09.889Z,13.10
2018-06-09T23:38:38.465Z,13.57
2018-06-09T23:41:07.001Z,12.87
2018-06-09T23:43:35.638Z,13.73
2018-06-09T23:46:04.309Z,12.33
2018-06-09T23:48:34.137Z,13.00
2018-06-09T23:51:02.719Z,13.50
2018-06-09T23:53:31.264Z,12.23
2018-06-09T23:55:59.472Z,13.93
2018-06-09T23:58:28.015Z,14.47
